Time;durP1;ratioP1;P1;durP2;ratioP2;P2;SDS_P1;SDS_P2;PMS_P1;PMS_P2;Temp;Humidity;BMP_temperature;BMP_pressure;BME280_temperature;BME280_humidity;BME280_pressure;Samples;Min_cycle;Max_cycle;Signal;HPM_P1;HPM_P2
2020/12/14 00:10:05;;;;;;;;;;;;;;;;;;;;;
2020/12/14 00:13:06;;;;;;;;;;;;;;;;;;;;;
2020/12/14 00:19:21;;;;;;;;;;;;;;;;;;;;;
2020/12/14 00:35:50;;;;;;;11.77;5.77;;;6.00;68.30;;;;;;5890427;24;20420;-85
2020/12/14 00:45:27;;;;;;;;;;;;;;;;;;;;;
2020/12/14 00:48:30;;;;;;;11.07;5.40;;;6.10;67.30;;;;;;5820340;24;20417;-86
2020/12/14 00:51:09;;;;;;;8.73;4.83;;;6.20;66.80;;;;;;5903360;24;20428;-85
2020/12/14 00:54:42;;;;;;;;;;;;;;;;;;;;;
2020/12/14 00:57:46;;;;;;;;;;;;;;;;;;;;;
2020/12/14 01:00:15;;;;;;;16.60;4.87;;;6.20;66.80;;;;;;5804459;24;20417;-85
2020/12/14 01:07:16;;;;;;;9.37;4.60;;;6.20;66.40;;;;;;5817781;24;20429;-85
2020/12/14 01:10:27;;;;;;;9.33;4.20;;;6.30;65.20;;;;;;5817717;24;20449;-86
2020/12/14 01:13:23;;;;;;;11.17;4.07;;;6.20;64.20;;;;;;5937828;24;20920;-85
2020/12/14 01:26:12;;;;;;;;;;;;;;;;;;;;;
2020/12/14 01:31:40;;;;;;;7.00;4.23;;;6.40;63.00;;;;;;5768175;24;20474;-85
2020/12/14 01:34:39;;;;;;;;;;;;;;;;;;;;;
2020/12/14 01:38:08;;;;;;;;;;;;;;;;;;;;;
2020/12/14 02:06:34;;;;;;;;;;;;;;;;;;;;;
2020/12/14 02:22:15;;;;;;;;;;;;;;;;;;;;;
2020/12/14 02:28:48;;;;;;;;;;;;;;;;;;;;;
2020/12/14 05:02:26;;;;;;;8.47;3.50;;;6.50;89.50;;;;;;6001961;23;20505;-84
2020/12/14 05:04:56;;;;;;;10.20;3.77;;;6.40;88.30;;;;;;6140555;23;20504;-84
2020/12/14 05:07:56;;;;;;;;;;;;;;;;;;;;;
2020/12/14 05:10:43;;;;;;;7.73;3.20;;;6.50;85.40;;;;;;6123647;23;20411;-85
2020/12/14 05:13:23;;;;;;;12.30;3.57;;;6.50;84.40;;;;;;6186682;23;20432;-84
2020/12/14 05:58:34;;;;;;;;;;;;;;;;;;;;;
2020/12/14 06:01:01;;;;;;;9.00;7.27;;;5.60;99.90;;;;;;5862094;24;20438;-80
2020/12/14 07:02:18;;;;;;;;;;;;;;;;;;;;;
2020/12/14 07:17:33;;;;;;;8.50;4.97;;;6.80;99.60;;;;;;5938189;24;20416;-82
2020/12/14 07:20:01;;;;;;;8.50;5.30;;;6.80;99.90;;;;;;5989682;23;20422;-82
2020/12/14 07:23:17;;;;;;;;;;;;;;;;;;;;;
2020/12/14 07:28:53;;;;;;;19.50;18.30;;;6.50;99.90;;;;;;6127302;22;20409;-82
2020/12/14 07:31:23;;;;;;;28.20;26.60;;;6.50;99.90;;;;;;6285265;22;20402;-82
2020/12/14 07:33:58;;;;;;;35.80;33.07;;;6.50;99.90;;;;;;6295361;22;20413;-82
2020/12/14 07:36:26;;;;;;;37.10;34.47;;;6.40;99.90;;;;;;6285147;22;20453;-82
2020/12/14 07:38:54;;;;;;;44.50;42.00;;;6.60;99.90;;;;;;6284958;22;20775;-81
2020/12/14 07:41:31;;;;;;;55.37;52.40;;;6.30;99.90;;;;;;6283512;22;20430;-83
2020/12/14 07:44:22;;;;;;;54.87;52.27;;;6.50;99.90;;;;;;6284897;22;20393;-83
2020/12/14 07:47:35;;;;;;;58.37;55.57;;;6.40;99.90;;;;;;6284829;22;20398;-83
2020/12/14 07:53:43;;;;;;;65.47;62.67;;;6.50;99.90;;;;;;6101281;23;20488;-83
2020/12/14 08:06:15;;;;;;;48.30;45.90;;;6.60;99.90;;;;;;5745374;24;20503;-82
2020/12/14 08:08:57;;;;;;;;;;;;;;;;;;;;;
2020/12/14 08:14:30;;;;;;;66.13;63.10;;;6.80;99.90;;;;;;6221944;23;20775;-82
2020/12/14 08:20:42;;;;;;;59.37;56.57;;;6.80;99.90;;;;;;6211989;23;20418;-83
2020/12/14 08:27:18;;;;;;;53.77;51.17;;;6.90;99.90;;;;;;6093959;23;20505;-82
2020/12/14 08:45:38;;;;;;;;;;;;;;;;;;;;;
2020/12/14 08:48:05;;;;;;;42.27;39.47;;;6.80;99.90;;;;;;6029723;23;20172;-83
2020/12/14 08:50:37;;;;;;;43.70;41.10;;;7.00;99.90;;;;;;6213320;23;20502;-85
2020/12/14 08:53:47;;;;;;;;;;;;;;;;;;;;;
2020/12/14 08:56:16;;;;;;;59.77;57.00;;;7.10;99.90;;;;;;6093431;23;20912;-82
2020/12/14 08:59:25;;;;;;;;;;;;;;;;;;;;;
2020/12/14 09:02:14;;;;;;;61.07;58.00;;;7.00;99.90;;;;;;6276544;22;20528;-82
2020/12/14 09:04:45;;;;;;;59.27;56.30;;;7.00;99.90;;;;;;6277489;22;20395;-82
2020/12/14 09:07:38;;;;;;;;;;;;;;;;;;;;;
2020/12/14 09:10:22;;;;;;;53.77;51.17;;;7.20;99.90;;;;;;6276151;22;21028;-82
2020/12/14 09:12:55;;;;;;;51.70;49.30;;;7.20;99.90;;;;;;6276092;22;20720;-82
2020/12/14 09:15:24;;;;;;;50.93;48.33;;;7.20;99.90;;;;;;6287180;22;20441;-81
2020/12/14 09:18:00;;;;;;;51.83;49.23;;;7.40;99.90;;;;;;6287300;22;20497;-82
2020/12/14 09:20:28;;;;;;;49.57;46.87;;;7.40;99.90;;;;;;6276821;22;20409;-82
2020/12/14 09:22:59;;;;;;;53.10;50.60;;;7.40;99.90;;;;;;6277368;22;20395;-81
2020/12/14 09:25:28;;;;;;;42.57;40.27;;;7.40;99.90;;;;;;6286741;22;20488;-81
2020/12/14 09:27:55;;;;;;;44.07;41.20;;;7.50;99.90;;;;;;6287122;22;20924;-81
2020/12/14 09:30:21;;;;;;;39.10;36.70;;;7.50;99.90;;;;;;6277298;22;20521;-81
2020/12/14 09:32:47;;;;;;;37.53;35.53;;;7.50;99.90;;;;;;6276720;22;20776;-81
2020/12/14 09:35:15;;;;;;;37.83;35.63;;;7.50;99.90;;;;;;6277296;22;20762;-81
2020/12/14 09:37:42;;;;;;;35.90;33.80;;;7.60;99.90;;;;;;6277328;22;20719;-81
2020/12/14 09:40:08;;;;;;;33.87;31.77;;;7.50;99.90;;;;;;6287092;22;20775;-81
2020/12/14 09:42:37;;;;;;;35.17;33.20;;;7.60;99.90;;;;;;6275527;22;20394;-81
2020/12/14 09:45:05;;;;;;;31.50;29.60;;;7.70;99.90;;;;;;6277172;22;20395;-81
2020/12/14 09:47:31;;;;;;;32.57;30.47;;;7.80;99.90;;;;;;6286931;22;20402;-79
2020/12/14 09:49:57;;;;;;;32.17;30.10;;;7.80;99.90;;;;;;6276560;22;20430;-81
2020/12/14 09:52:33;;;;;;;29.97;28.10;;;7.90;99.90;;;;;;6287388;22;20860;-86
2020/12/14 09:55:03;;;;;;;30.20;27.90;;;7.80;99.90;;;;;;6286848;22;20429;-81
2020/12/14 09:57:42;;;;;;;29.43;27.27;;;7.90;99.90;;;;;;6276015;22;20395;-82
2020/12/14 10:00:10;;;;;;;28.50;26.80;;;8.00;99.90;;;;;;6276347;22;20512;-82
2020/12/14 10:02:38;;;;;;;28.73;26.63;;;8.20;99.90;;;;;;6276902;22;20417;-81
2020/12/14 10:05:04;;;;;;;22.50;20.37;;;8.30;99.90;;;;;;6276917;22;20477;-81
2020/12/14 10:07:31;;;;;;;16.10;14.73;;;8.40;99.90;;;;;;6288055;22;20898;-81
2020/12/14 10:09:57;;;;;;;12.27;11.23;;;8.40;99.90;;;;;;6286999;22;20470;-80
2020/12/14 10:12:25;;;;;;;14.70;10.57;;;8.40;99.90;;;;;;6280894;22;20434;-80
2020/12/14 10:14:55;;;;;;;15.30;14.20;;;8.30;99.90;;;;;;6275136;22;20403;-82
2020/12/14 10:27:27;;;;;;;31.60;29.70;;;7.90;99.90;;;;;;6135099;23;20726;-82
2020/12/14 10:30:01;;;;;;;37.00;35.00;;;7.90;99.90;;;;;;6152934;23;20432;-82
2020/12/14 10:32:57;;;;;;;40.20;38.03;;;7.80;99.90;;;;;;6253398;22;20413;-82
2020/12/14 10:35:50;;;;;;;;;;;;;;;;;;;;;
2020/12/14 10:38:18;;;;;;;45.10;42.20;;;7.80;99.90;;;;;;6275232;22;20901;-82
2020/12/14 10:40:47;;;;;;;47.97;45.07;;;7.90;99.90;;;;;;6275172;22;20737;-82
2020/12/14 10:43:14;;;;;;;53.00;50.20;;;7.80;99.90;;;;;;6276323;22;20445;-81
2020/12/14 10:45:41;;;;;;;53.90;50.93;;;8.00;99.90;;;;;;6276759;22;20790;-81
2020/12/14 10:48:07;;;;;;;51.07;48.67;;;8.10;99.90;;;;;;6276393;22;20394;-81
2020/12/14 10:50:38;;;;;;;43.83;41.37;;;8.30;99.90;;;;;;6276341;22;20431;-82
2020/12/14 10:53:07;;;;;;;41.30;39.20;;;8.50;99.90;;;;;;6286986;22;20398;-82
2020/12/14 10:55:33;;;;;;;29.47;26.77;;;8.60;99.90;;;;;;6274549;22;20431;-81
2020/12/14 10:57:59;;;;;;;19.03;17.73;;;8.60;99.90;;;;;;6276190;22;20897;-82
2020/12/14 11:00:26;;;;;;;17.83;16.10;;;8.60;99.90;;;;;;6286239;22;20427;-82
2020/12/14 11:02:56;;;;;;;17.17;15.40;;;8.50;99.90;;;;;;6276716;22;20401;-82
2020/12/14 11:05:24;;;;;;;15.13;13.93;;;8.40;99.90;;;;;;6276496;22;20401;-82
2020/12/14 11:07:53;;;;;;;13.90;12.80;;;8.40;99.90;;;;;;6286588;22;20398;-83
2020/12/14 11:10:23;;;;;;;15.73;14.07;;;8.50;99.90;;;;;;6276031;22;20438;-83
2020/12/14 11:12:50;;;;;;;15.50;12.50;;;8.50;99.90;;;;;;6284911;22;20399;-83
2020/12/14 11:15:16;;;;;;;17.37;15.60;;;8.50;99.90;;;;;;6275686;22;20437;-80
2020/12/14 11:17:44;;;;;;;14.83;13.27;;;8.70;99.90;;;;;;6275931;22;20482;-82
2020/12/14 11:20:15;;;;;;;11.83;10.60;;;8.80;99.90;;;;;;6276422;22;20400;-82
2020/12/14 11:22:41;;;;;;;12.47;11.27;;;8.90;99.90;;;;;;6286435;22;20457;-82
2020/12/14 11:25:09;;;;;;;9.97;9.07;;;8.90;99.90;;;;;;6286370;22;20434;-82
2020/12/14 11:27:35;;;;;;;8.17;5.90;;;8.80;99.90;;;;;;6274684;22;20784;-81
2020/12/14 11:30:02;;;;;;;12.40;8.50;;;9.00;99.90;;;;;;6276413;22;20505;-81
2020/12/14 11:32:28;;;;;;;9.47;8.57;;;9.00;99.90;;;;;;6276450;22;20398;-82
2020/12/14 11:34:54;;;;;;;9.13;8.23;;;9.00;99.90;;;;;;6276436;22;20405;-81
2020/12/14 11:37:22;;;;;;;10.30;7.60;;;9.00;99.90;;;;;;6288469;22;20402;-81
2020/12/14 11:39:48;;;;;;;10.17;6.33;;;9.00;99.90;;;;;;6288448;22;20930;-82
2020/12/14 11:42:15;;;;;;;10.57;7.83;;;9.00;99.90;;;;;;6286733;22;20442;-81
2020/12/14 11:44:41;;;;;;;9.87;7.60;;;9.10;99.90;;;;;;6278307;22;20399;-81
2020/12/14 11:47:08;;;;;;;8.60;6.40;;;9.10;99.90;;;;;;6278393;22;20882;-81
2020/12/14 11:49:34;;;;;;;17.63;8.57;;;9.20;99.90;;;;;;6278219;22;20465;-81
2020/12/14 11:52:01;;;;;;;15.53;6.43;;;9.20;99.90;;;;;;6278260;22;20401;-81
2020/12/14 11:54:28;;;;;;;9.97;8.20;;;9.40;99.90;;;;;;6278254;22;20422;-81
2020/12/14 11:56:55;;;;;;;12.70;6.13;;;9.40;99.90;;;;;;6276452;22;20398;-81
2020/12/14 11:59:21;;;;;;;10.03;5.10;;;9.50;99.90;;;;;;6277855;22;20429;-81
2020/12/14 12:01:48;;;;;;;10.90;4.50;;;9.60;98.60;;;;;;6288221;22;20454;-80
2020/12/14 12:04:14;;;;;;;9.70;5.57;;;9.70;94.70;;;;;;6288383;22;20528;-81
2020/12/14 12:06:40;;;;;;;12.30;5.67;;;9.70;95.60;;;;;;6278183;22;20395;-81
2020/12/14 12:09:07;;;;;;;7.00;3.83;;;9.70;92.30;;;;;;6278105;22;20399;-81
2020/12/14 12:11:34;;;;;;;10.07;4.17;;;9.70;90.90;;;;;;6286597;22;20430;-81
2020/12/14 12:14:01;;;;;;;6.97;4.47;;;9.70;88.70;;;;;;6277692;22;20890;-81
2020/12/14 12:16:27;;;;;;;9.13;3.90;;;9.80;90.50;;;;;;6278065;22;20403;-81
2020/12/14 12:18:53;;;;;;;6.97;4.50;;;9.90;85.50;;;;;;6277718;22;20394;-81
2020/12/14 12:21:21;;;;;;;8.00;4.30;;;9.90;82.70;;;;;;6288283;22;20406;-82
2020/12/14 12:23:47;;;;;;;8.53;4.70;;;10.00;78.60;;;;;;6277904;22;20786;-81
2020/12/14 12:26:14;;;;;;;6.00;3.53;;;10.00;82.50;;;;;;6276492;22;20426;-81
2020/12/14 12:28:42;;;;;;;11.70;3.53;;;9.90;79.90;;;;;;6277994;22;20430;-81
2020/12/14 12:31:08;;;;;;;8.00;4.07;;;9.90;77.80;;;;;;6277883;22;20430;-81
2020/12/14 12:33:34;;;;;;;8.77;4.37;;;9.90;77.80;;;;;;6288074;22;20977;-81
2020/12/14 12:36:01;;;;;;;7.93;3.30;;;10.00;75.90;;;;;;6277504;22;20485;-81
2020/12/14 12:38:27;;;;;;;8.57;3.60;;;9.90;76.40;;;;;;6287236;22;20497;-82
2020/12/14 12:40:54;;;;;;;9.23;3.50;;;9.90;77.80;;;;;;6286709;22;21125;-82
2020/12/14 12:46:04;;;;;;;6.80;3.50;;;10.00;75.80;;;;;;6232167;22;20449;-79
2020/12/14 12:48:32;;;;;;;8.17;4.17;;;9.90;77.80;;;;;;6287863;22;20455;-82
2020/12/14 12:50:59;;;;;;;6.50;3.57;;;9.90;74.90;;;;;;6287851;22;20430;-82
2020/12/14 12:53:26;;;;;;;7.60;3.90;;;10.00;73.60;;;;;;6287938;22;20410;-82
2020/12/14 12:55:57;;;;;;;6.63;3.90;;;9.90;75.30;;;;;;6286038;22;20406;-82
2020/12/14 12:58:30;;;;;;;8.97;4.07;;;9.90;77.80;;;;;;6277703;22;20401;-83
2020/12/14 13:01:04;;;;;;;9.23;3.67;;;9.90;76.70;;;;;;6277614;22;20401;-83
2020/12/14 13:03:32;;;;;;;7.77;3.50;;;9.90;75.50;;;;;;6277457;22;20399;-83
2020/12/14 13:06:01;;;;;;;5.90;3.33;;;10.00;74.10;;;;;;6277572;22;20422;-84
2020/12/14 13:08:35;;;;;;;7.50;3.47;;;10.00;74.70;;;;;;6277419;22;20395;-84
2020/12/14 13:11:06;;;;;;;8.00;3.70;;;9.90;77.20;;;;;;6286181;22;20430;-84
2020/12/14 13:13:35;;;;;;;6.30;3.80;;;9.90;76.30;;;;;;6287291;22;20975;-84
2020/12/14 13:16:14;;;;;;;8.20;3.90;;;9.90;77.80;;;;;;6287130;22;20407;-83
2020/12/14 13:18:42;;;;;;;12.40;3.70;;;9.90;74.70;;;;;;6287674;22;20455;-84
2020/12/14 13:21:47;;;;;;;10.23;2.93;;;9.90;75.10;;;;;;6276849;22;20429;-84
2020/12/14 13:24:29;;;;;;;;;;;;;;;;;;;;;
2020/12/14 13:27:06;;;;;;;9.73;3.47;;;10.00;73.80;;;;;;6244561;23;20407;-83
2020/12/14 13:29:40;;;;;;;6.80;3.47;;;10.00;72.70;;;;;;6246237;23;20395;-83
2020/12/14 13:32:23;;;;;;;7.70;3.50;;;9.90;72.50;;;;;;6246604;23;20487;-83
2020/12/14 13:34:55;;;;;;;20.60;3.47;;;10.00;70.40;;;;;;6256173;23;20486;-82
2020/12/14 13:40:20;;;;;;;8.23;3.03;;;10.10;71.70;;;;;;6256694;23;20712;-83
2020/12/14 13:42:53;;;;;;;12.60;3.47;;;10.10;70.00;;;;;;6245063;23;20465;-83
2020/12/14 13:49:13;;;;;;;;;;;;;;;;;;;;;
2020/12/14 13:58:09;;;;;;;8.17;4.00;;;10.00;71.00;;;;;;6125457;23;20434;-83
2020/12/14 14:00:58;;;;;;;6.53;3.20;;;9.90;71.40;;;;;;6166368;23;20417;-82
2020/12/14 14:04:07;;;;;;;;;;;;;;;;;;;;;
2020/12/14 14:06:39;;;;;;;9.10;3.90;;;9.90;71.70;;;;;;5895771;24;20805;-83
2020/12/14 14:09:15;;;;;;;10.23;2.90;;;9.90;72.40;;;;;;6064101;23;20508;-83
2020/12/14 14:11:56;;;;;;;8.53;3.57;;;9.90;71.90;;;;;;6071524;23;20475;-83
2020/12/14 14:14:54;;;;;;;;;;;;;;;;;;;;;
2020/12/14 14:17:20;;;;;;;7.30;2.90;;;9.80;70.90;;;;;;6245296;23;20403;-83
2020/12/14 14:19:58;;;;;;;7.20;3.00;;;9.80;71.30;;;;;;6242910;23;20403;-82
2020/12/14 14:23:04;;;;;;;7.60;2.93;;;9.80;70.40;;;;;;6244242;23;20395;-83
2020/12/14 14:25:34;;;;;;;9.63;3.33;;;9.80;69.90;;;;;;6240826;23;20402;-83
2020/12/14 14:31:43;;;;;;;6.07;2.53;;;9.70;71.90;;;;;;6241784;23;20438;-83
2020/12/14 14:34:11;;;;;;;17.77;6.67;;;9.60;72.50;;;;;;6253864;23;20418;-82
2020/12/14 14:36:41;;;;;;;11.47;4.33;;;9.60;73.40;;;;;;6244370;23;20725;-82
2020/12/14 14:39:24;;;;;;;;;;;;;;;;;;;;;
2020/12/14 14:41:54;;;;;;;8.00;3.30;;;9.50;73.50;;;;;;6197399;23;20411;-83
2020/12/14 14:47:32;;;;;;;6.70;3.57;;;9.50;73.30;;;;;;6073519;23;20846;-83
2020/12/14 14:50:00;;;;;;;11.37;3.70;;;9.40;74.00;;;;;;6199844;23;20521;-83
2020/12/14 14:52:42;;;;;;;;;;;;;;;;;;;;;
2020/12/14 14:55:23;;;;;;;10.03;3.43;;;9.40;73.80;;;;;;6176307;23;20457;-84
2020/12/14 14:58:25;;;;;;;10.70;3.67;;;9.40;74.40;;;;;;6241870;23;20406;-83
2020/12/14 15:01:19;;;;;;;;;;;;;;;;;;;;;
2020/12/14 15:04:26;;;;;;;10.93;3.60;;;9.30;74.20;;;;;;6175941;23;20469;-84
2020/12/14 15:07:12;;;;;;;7.80;3.20;;;9.30;75.30;;;;;;6214135;23;20418;-83
2020/12/14 15:12:57;;;;;;;;;;;;;;;;;;;;;
2020/12/14 15:16:05;;;;;;;11.67;3.97;;;9.20;75.20;;;;;;6256601;23;20445;-84
2020/12/14 15:19:12;;;;;;;7.50;3.73;;;9.20;76.40;;;;;;6245993;23;20406;-83
2020/12/14 15:25:21;;;;;;;7.13;4.17;;;8.90;78.60;;;;;;6017846;23;20442;-83
2020/12/14 15:28:30;;;;;;;;;;;;;;;;;;;;;
2020/12/14 15:30:58;;;;;;;9.20;4.47;;;8.70;82.00;;;;;;6102776;23;20857;-84
2020/12/14 15:37:33;;;;;;;;;;;;;;;;;;;;;
2020/12/14 15:40:12;;;;;;;;;;;;;;;;;;;;;
2020/12/14 15:42:57;;;;;;;;;;;;;;;;;;;;;
2020/12/14 15:45:53;;;;;;;;;;;;;;;;;;;;;
2020/12/14 15:48:57;;;;;;;;;;;;;;;;;;;;;
2020/12/14 16:09:44;;;;;;;9.30;3.87;;;8.90;86.50;;;;;;5907963;24;20423;-85
2020/12/14 16:16:28;;;;;;;8.70;3.83;;;9.10;83.50;;;;;;5862234;24;20426;-84
2020/12/14 16:18:56;;;;;;;11.10;6.17;;;9.00;84.00;;;;;;6000334;23;20977;-83
2020/12/14 16:21:35;;;;;;;;;;;;;;;;;;;;;
2020/12/14 16:24:15;;;;;;;7.63;4.43;;;9.10;82.90;;;;;;6095681;23;20424;-84
2020/12/14 16:27:05;;;;;;;9.60;4.07;;;9.10;83.40;;;;;;6185597;23;20416;-83
2020/12/14 16:29:44;;;;;;;9.67;4.30;;;9.20;83.10;;;;;;6181060;23;20448;-84
2020/12/14 16:32:50;;;;;;;8.30;4.60;;;9.30;81.60;;;;;;6186573;23;20397;-83
2020/12/14 16:36:01;;;;;;;7.07;3.90;;;9.30;81.50;;;;;;6174381;23;20491;-83
2020/12/14 16:54:29;;;;;;;;;;;;;;;;;;;;;
2020/12/14 16:57:08;;;;;;;6.67;3.47;;;9.30;78.20;;;;;;5945010;23;20269;-84
2020/12/14 17:00:06;;;;;;;11.40;3.77;;;9.30;77.30;;;;;;6006207;23;20410;-84
2020/12/14 17:02:53;;;;;;;8.30;4.17;;;9.30;77.30;;;;;;6007207;23;20421;-83
2020/12/14 17:05:58;;;;;;;;;;;;;;;;;;;;;
2020/12/14 17:12:03;;;;;;;8.73;3.83;;;9.20;77.20;;;;;;6091603;23;20448;-84
2020/12/14 17:18:52;;;;;;;;;;;;;;;;;;;;;
2020/12/14 18:05:11;;;;;;;15.57;5.83;;;8.90;67.50;;;;;;5778067;24;20266;-84
2020/12/14 18:11:10;;;;;;;18.33;5.57;;;8.90;67.10;;;;;;5870813;24;20521;-84
2020/12/14 18:14:21;;;;;;;;;;;;;;;;;;;;;
2020/12/14 18:17:18;;;;;;;8.67;4.33;;;9.00;66.10;;;;;;6072716;23;20492;-84
2020/12/14 18:20:10;;;;;;;;;;;;;;;;;;;;;
2020/12/14 18:23:08;;;;;;;11.93;4.40;;;8.80;66.00;;;;;;5947037;23;20438;-83
2020/12/14 18:29:26;;;;;;;11.83;4.37;;;8.80;65.60;;;;;;6133476;23;20417;-84
2020/12/14 21:23:31;;;;;;;8.70;4.80;;;8.10;68.50;;;;;;6186042;23;20400;-83
2020/12/14 21:25:58;;;;;;;10.70;4.80;;;8.00;71.60;;;;;;6184649;23;20408;-83
2020/12/14 21:28:35;;;;;;;;;;;;;;;;;;;;;
2020/12/14 21:31:08;;;;;;;10.30;4.70;;;7.90;76.10;;;;;;6185474;23;20962;-83
2020/12/14 21:33:39;;;;;;;8.40;4.70;;;7.80;79.40;;;;;;6196100;23;20713;-84
2020/12/14 21:36:07;;;;;;;7.60;4.83;;;7.80;80.40;;;;;;6195764;23;20939;-83
2020/12/14 21:38:41;;;;;;;7.60;4.67;;;7.70;83.60;;;;;;6196009;23;20404;-83
2020/12/14 21:41:10;;;;;;;8.30;5.13;;;7.70;84.60;;;;;;6194607;23;20402;-83
2020/12/14 21:46:36;;;;;;;7.87;5.00;;;7.60;83.50;;;;;;6195807;23;20444;-83
2020/12/14 21:49:41;;;;;;;7.47;4.20;;;7.60;84.60;;;;;;6186100;23;20393;-84
2020/12/14 21:52:18;;;;;;;7.90;4.70;;;7.60;81.30;;;;;;6083683;23;20967;-84
2020/12/14 21:54:55;;;;;;;9.67;5.60;;;7.60;81.50;;;;;;6195715;23;20436;-84
2020/12/14 21:57:44;;;;;;;11.37;4.93;;;7.80;81.20;;;;;;6194006;23;20412;-84
2020/12/14 22:00:41;;;;;;;9.67;4.70;;;7.70;80.90;;;;;;6178349;23;20424;-84
2020/12/14 22:07:28;;;;;;;15.40;7.40;;;7.80;83.70;;;;;;6046249;23;20433;-84
2020/12/14 22:13:29;;;;;;;12.73;8.07;;;7.70;83.30;;;;;;6005023;23;20849;-84
2020/12/14 22:16:33;;;;;;;;;;;;;;;;;;;;;
2020/12/14 22:19:29;;;;;;;;;;;;;;;;;;;;;
2020/12/14 22:22:24;;;;;;;;;;;;;;;;;;;;;
2020/12/14 22:28:48;;;;;;;;;;;;;;;;;;;;;
2020/12/14 22:35:30;;;;;;;;;;;;;;;;;;;;;
2020/12/14 23:03:55;;;;;;;;;;;;;;;;;;;;;
